sensor_id;sensor_type;location;lat;lon;timestamp;P1;durP1;ratioP1;P2;durP2;ratioP2
56927;SDS011;60850;52.502;13.426;2023-05-19T00:02:21;2.95;;;1.33;;
56927;SDS011;60850;52.502;13.426;2023-05-19T00:04:50;3.45;;;1.08;;
56927;SDS011;60850;52.502;13.426;2023-05-19T00:07:19;5.32;;;0.98;;
56927;SDS011;60850;52.502;13.426;2023-05-19T00:09:52;7.78;;;1.38;;
56927;SDS011;60850;52.502;13.426;2023-05-19T00:12:19;5.43;;;1.10;;
56927;SDS011;60850;52.502;13.426;2023-05-19T00:14:46;3.25;;;1.20;;
56927;SDS011;60850;52.502;13.426;2023-05-19T00:17:14;3.88;;;1.15;;
56927;SDS011;60850;52.502;13.426;2023-05-19T00:19:41;3.45;;;1.60;;
56927;SDS011;60850;52.502;13.426;2023-05-19T00:22:09;4.47;;;1.33;;
56927;SDS011;60850;52.502;13.426;2023-05-19T00:24:37;1.60;;;1.13;;
56927;SDS011;60850;52.502;13.426;2023-05-19T00:27:04;2.30;;;1.15;;
56927;SDS011;60850;52.502;13.426;2023-05-19T00:29:31;5.47;;;1.23;;
56927;SDS011;60850;52.502;13.426;2023-05-19T00:31:58;3.50;;;1.40;;
56927;SDS011;60850;52.502;13.426;2023-05-19T00:34:24;4.45;;;1.42;;
56927;SDS011;60850;52.502;13.426;2023-05-19T00:36:51;4.80;;;1.27;;
56927;SDS011;60850;52.502;13.426;2023-05-19T00:39:18;3.17;;;1.15;;
56927;SDS011;60850;52.502;13.426;2023-05-19T00:41:47;3.47;;;1.23;;
56927;SDS011;60850;52.502;13.426;2023-05-19T00:44:13;5.03;;;1.52;;
56927;SDS011;60850;52.502;13.426;2023-05-19T00:46:40;2.17;;;1.10;;
56927;SDS011;60850;52.502;13.426;2023-05-19T00:49:07;4.10;;;1.10;;
56927;SDS011;60850;52.502;13.426;2023-05-19T00:51:34;3.63;;;1.55;;
56927;SDS011;60850;52.502;13.426;2023-05-19T00:54:01;3.95;;;1.20;;
56927;SDS011;60850;52.502;13.426;2023-05-19T00:56:28;4.95;;;1.30;;
56927;SDS011;60850;52.502;13.426;2023-05-19T00:58:57;7.75;;;2.15;;
56927;SDS011;60850;52.502;13.426;2023-05-19T01:01:25;3.30;;;1.23;;
56927;SDS011;60850;52.502;13.426;2023-05-19T01:03:52;3.10;;;1.30;;
56927;SDS011;60850;52.502;13.426;2023-05-19T01:06:21;2.35;;;1.13;;
56927;SDS011;60850;52.502;13.426;2023-05-19T01:08:47;5.68;;;1.50;;
56927;SDS011;60850;52.502;13.426;2023-05-19T01:11:16;3.92;;;1.23;;
56927;SDS011;60850;52.502;13.426;2023-05-19T01:13:43;4.32;;;0.95;;
56927;SDS011;60850;52.502;13.426;2023-05-19T01:16:13;7.35;;;1.10;;
56927;SDS011;60850;52.502;13.426;2023-05-19T01:18:49;4.35;;;1.45;;
56927;SDS011;60850;52.502;13.426;2023-05-19T01:24:39;7.10;;;1.27;;
56927;SDS011;60850;52.502;13.426;2023-05-19T01:27:28;2.75;;;1.05;;
56927;SDS011;60850;52.502;13.426;2023-05-19T01:30:23;4.00;;;1.20;;
56927;SDS011;60850;52.502;13.426;2023-05-19T01:32:53;3.22;;;1.23;;
56927;SDS011;60850;52.502;13.426;2023-05-19T01:35:22;4.85;;;1.20;;
56927;SDS011;60850;52.502;13.426;2023-05-19T01:37:51;4.38;;;1.42;;
56927;SDS011;60850;52.502;13.426;2023-05-19T01:40:20;5.03;;;1.23;;
56927;SDS011;60850;52.502;13.426;2023-05-19T01:42:48;4.38;;;1.08;;
56927;SDS011;60850;52.502;13.426;2023-05-19T01:45:17;5.00;;;1.17;;
56927;SDS011;60850;52.502;13.426;2023-05-19T01:47:47;5.13;;;1.40;;
56927;SDS011;60850;52.502;13.426;2023-05-19T01:50:15;4.20;;;1.30;;
56927;SDS011;60850;52.502;13.426;2023-05-19T01:52:42;7.80;;;1.73;;
56927;SDS011;60850;52.502;13.426;2023-05-19T01:55:09;6.28;;;1.50;;
56927;SDS011;60850;52.502;13.426;2023-05-19T01:57:40;3.33;;;1.50;;
56927;SDS011;60850;52.502;13.426;2023-05-19T02:00:13;2.88;;;1.20;;
56927;SDS011;60850;52.502;13.426;2023-05-19T02:02:50;5.22;;;1.20;;
56927;SDS011;60850;52.502;13.426;2023-05-19T02:05:22;5.32;;;1.55;;
56927;SDS011;60850;52.502;13.426;2023-05-19T02:07:57;3.83;;;1.23;;
56927;SDS011;60850;52.502;13.426;2023-05-19T02:10:29;4.78;;;1.13;;
56927;SDS011;60850;52.502;13.426;2023-05-19T02:13:03;8.27;;;1.35;;
56927;SDS011;60850;52.502;13.426;2023-05-19T02:15:33;4.57;;;1.50;;
56927;SDS011;60850;52.502;13.426;2023-05-19T02:18:08;6.75;;;1.73;;
56927;SDS011;60850;52.502;13.426;2023-05-19T02:20:35;4.00;;;1.52;;
56927;SDS011;60850;52.502;13.426;2023-05-19T02:23:03;5.57;;;1.60;;
56927;SDS011;60850;52.502;13.426;2023-05-19T02:25:30;4.22;;;1.33;;
56927;SDS011;60850;52.502;13.426;2023-05-19T02:27:57;9.73;;;1.60;;
56927;SDS011;60850;52.502;13.426;2023-05-19T02:30:24;3.60;;;1.30;;
56927;SDS011;60850;52.502;13.426;2023-05-19T02:32:51;4.88;;;1.73;;
56927;SDS011;60850;52.502;13.426;2023-05-19T02:35:19;2.42;;;1.08;;
56927;SDS011;60850;52.502;13.426;2023-05-19T02:37:46;3.38;;;1.30;;
56927;SDS011;60850;52.502;13.426;2023-05-19T02:40:13;3.53;;;1.40;;
56927;SDS011;60850;52.502;13.426;2023-05-19T02:42:40;4.20;;;1.20;;
56927;SDS011;60850;52.502;13.426;2023-05-19T02:45:07;5.45;;;1.52;;
56927;SDS011;60850;52.502;13.426;2023-05-19T02:47:34;2.58;;;1.35;;
56927;SDS011;60850;52.502;13.426;2023-05-19T02:50:02;3.50;;;1.38;;
56927;SDS011;60850;52.502;13.426;2023-05-19T02:52:31;3.47;;;1.40;;
56927;SDS011;60850;52.502;13.426;2023-05-19T02:54:58;4.47;;;1.55;;
56927;SDS011;60850;52.502;13.426;2023-05-19T02:57:25;4.72;;;1.13;;
56927;SDS011;60850;52.502;13.426;2023-05-19T02:59:55;2.85;;;1.20;;
56927;SDS011;60850;52.502;13.426;2023-05-19T03:02:22;4.57;;;1.27;;
56927;SDS011;60850;52.502;13.426;2023-05-19T03:04:49;3.83;;;1.50;;
56927;SDS011;60850;52.502;13.426;2023-05-19T03:07:16;5.22;;;1.27;;
56927;SDS011;60850;52.502;13.426;2023-05-19T03:09:50;4.70;;;1.48;;
56927;SDS011;60850;52.502;13.426;2023-05-19T03:12:17;4.70;;;1.25;;
56927;SDS011;60850;52.502;13.426;2023-05-19T03:14:44;5.25;;;1.60;;
56927;SDS011;60850;52.502;13.426;2023-05-19T03:17:11;2.83;;;1.13;;
56927;SDS011;60850;52.502;13.426;2023-05-19T03:19:38;3.38;;;1.20;;
56927;SDS011;60850;52.502;13.426;2023-05-19T03:22:05;5.22;;;1.83;;
56927;SDS011;60850;52.502;13.426;2023-05-19T03:24:32;5.30;;;1.20;;
56927;SDS011;60850;52.502;13.426;2023-05-19T03:27:02;2.10;;;1.17;;
56927;SDS011;60850;52.502;13.426;2023-05-19T03:29:30;7.18;;;1.38;;
56927;SDS011;60850;52.502;13.426;2023-05-19T03:31:57;6.88;;;1.50;;
56927;SDS011;60850;52.502;13.426;2023-05-19T03:34:24;4.50;;;1.25;;
56927;SDS011;60850;52.502;13.426;2023-05-19T03:36:51;4.60;;;1.33;;
56927;SDS011;60850;52.502;13.426;2023-05-19T03:39:18;3.28;;;1.30;;
56927;SDS011;60850;52.502;13.426;2023-05-19T03:41:45;6.03;;;1.67;;
56927;SDS011;60850;52.502;13.426;2023-05-19T03:44:13;6.60;;;1.25;;
56927;SDS011;60850;52.502;13.426;2023-05-19T03:46:40;3.17;;;1.20;;
56927;SDS011;60850;52.502;13.426;2023-05-19T03:49:07;1.77;;;0.98;;
56927;SDS011;60850;52.502;13.426;2023-05-19T03:51:33;4.32;;;1.50;;
56927;SDS011;60850;52.502;13.426;2023-05-19T03:54:00;4.18;;;1.58;;
56927;SDS011;60850;52.502;13.426;2023-05-19T03:56:27;5.55;;;1.77;;
56927;SDS011;60850;52.502;13.426;2023-05-19T03:58:55;4.50;;;1.63;;
56927;SDS011;60850;52.502;13.426;2023-05-19T04:01:23;6.95;;;1.30;;
56927;SDS011;60850;52.502;13.426;2023-05-19T04:03:50;4.32;;;1.48;;
56927;SDS011;60850;52.502;13.426;2023-05-19T04:06:17;5.35;;;1.70;;
56927;SDS011;60850;52.502;13.426;2023-05-19T04:08:44;4.35;;;1.50;;
56927;SDS011;60850;52.502;13.426;2023-05-19T04:11:11;4.25;;;1.45;;
56927;SDS011;60850;52.502;13.426;2023-05-19T04:13:38;4.55;;;1.65;;
56927;SDS011;60850;52.502;13.426;2023-05-19T04:16:05;3.83;;;1.88;;
56927;SDS011;60850;52.502;13.426;2023-05-19T04:18:33;2.53;;;1.25;;
56927;SDS011;60850;52.502;13.426;2023-05-19T04:21:00;4.82;;;1.75;;
56927;SDS011;60850;52.502;13.426;2023-05-19T04:23:27;5.63;;;1.58;;
56927;SDS011;60850;52.502;13.426;2023-05-19T04:25:54;4.40;;;1.52;;
56927;SDS011;60850;52.502;13.426;2023-05-19T04:28:23;5.53;;;1.75;;
56927;SDS011;60850;52.502;13.426;2023-05-19T04:30:50;5.18;;;1.27;;
56927;SDS011;60850;52.502;13.426;2023-05-19T04:33:16;3.35;;;1.50;;
56927;SDS011;60850;52.502;13.426;2023-05-19T04:35:45;4.60;;;1.73;;
56927;SDS011;60850;52.502;13.426;2023-05-19T04:38:14;3.92;;;1.80;;
56927;SDS011;60850;52.502;13.426;2023-05-19T04:40:43;3.92;;;1.50;;
56927;SDS011;60850;52.502;13.426;2023-05-19T04:43:10;4.72;;;1.83;;
56927;SDS011;60850;52.502;13.426;2023-05-19T04:45:37;5.35;;;1.73;;
56927;SDS011;60850;52.502;13.426;2023-05-19T04:48:06;5.10;;;1.92;;
56927;SDS011;60850;52.502;13.426;2023-05-19T04:50:33;4.85;;;2.13;;
56927;SDS011;60850;52.502;13.426;2023-05-19T04:53:04;3.88;;;1.42;;
56927;SDS011;60850;52.502;13.426;2023-05-19T04:55:31;3.17;;;1.60;;
56927;SDS011;60850;52.502;13.426;2023-05-19T04:57:58;4.10;;;1.75;;
56927;SDS011;60850;52.502;13.426;2023-05-19T05:00:25;4.63;;;1.85;;
56927;SDS011;60850;52.502;13.426;2023-05-19T05:02:52;4.13;;;1.80;;
56927;SDS011;60850;52.502;13.426;2023-05-19T05:05:21;3.33;;;1.38;;
56927;SDS011;60850;52.502;13.426;2023-05-19T05:07:49;6.40;;;1.75;;
56927;SDS011;60850;52.502;13.426;2023-05-19T05:10:19;2.97;;;1.33;;
56927;SDS011;60850;52.502;13.426;2023-05-19T05:12:47;6.20;;;1.90;;
56927;SDS011;60850;52.502;13.426;2023-05-19T05:15:14;3.03;;;1.60;;
56927;SDS011;60850;52.502;13.426;2023-05-19T05:17:42;3.67;;;1.60;;
56927;SDS011;60850;52.502;13.426;2023-05-19T05:20:10;3.78;;;2.17;;
56927;SDS011;60850;52.502;13.426;2023-05-19T05:22:38;4.28;;;1.65;;
56927;SDS011;60850;52.502;13.426;2023-05-19T05:25:06;4.05;;;1.70;;
56927;SDS011;60850;52.502;13.426;2023-05-19T05:27:34;3.97;;;1.52;;
56927;SDS011;60850;52.502;13.426;2023-05-19T05:30:02;6.65;;;2.10;;
56927;SDS011;60850;52.502;13.426;2023-05-19T05:32:29;3.33;;;1.70;;
56927;SDS011;60850;52.502;13.426;2023-05-19T05:34:56;4.00;;;1.80;;
56927;SDS011;60850;52.502;13.426;2023-05-19T05:37:23;4.95;;;1.73;;
56927;SDS011;60850;52.502;13.426;2023-05-19T05:39:50;5.85;;;1.80;;
56927;SDS011;60850;52.502;13.426;2023-05-19T05:42:17;6.22;;;1.90;;
56927;SDS011;60850;52.502;13.426;2023-05-19T05:44:46;6.05;;;1.73;;
56927;SDS011;60850;52.502;13.426;2023-05-19T05:47:13;3.63;;;1.48;;
56927;SDS011;60850;52.502;13.426;2023-05-19T05:49:41;4.85;;;1.98;;
56927;SDS011;60850;52.502;13.426;2023-05-19T05:52:08;4.13;;;1.50;;
56927;SDS011;60850;52.502;13.426;2023-05-19T05:54:37;6.45;;;2.10;;
56927;SDS011;60850;52.502;13.426;2023-05-19T05:57:05;7.57;;;1.77;;
56927;SDS011;60850;52.502;13.426;2023-05-19T05:59:33;3.70;;;1.70;;
56927;SDS011;60850;52.502;13.426;2023-05-19T06:02:01;4.63;;;2.17;;
56927;SDS011;60850;52.502;13.426;2023-05-19T06:04:28;5.05;;;2.03;;
56927;SDS011;60850;52.502;13.426;2023-05-19T06:06:55;7.70;;;2.10;;
56927;SDS011;60850;52.502;13.426;2023-05-19T06:09:25;7.03;;;1.90;;
56927;SDS011;60850;52.502;13.426;2023-05-19T06:11:52;3.50;;;1.60;;
56927;SDS011;60850;52.502;13.426;2023-05-19T06:14:19;4.45;;;1.70;;
56927;SDS011;60850;52.502;13.426;2023-05-19T06:16:46;5.47;;;1.92;;
56927;SDS011;60850;52.502;13.426;2023-05-19T06:19:15;6.43;;;2.22;;
56927;SDS011;60850;52.502;13.426;2023-05-19T06:21:41;5.05;;;2.05;;
56927;SDS011;60850;52.502;13.426;2023-05-19T06:24:08;3.90;;;1.88;;
56927;SDS011;60850;52.502;13.426;2023-05-19T06:26:35;5.53;;;2.00;;
56927;SDS011;60850;52.502;13.426;2023-05-19T06:29:02;5.90;;;2.05;;
56927;SDS011;60850;52.502;13.426;2023-05-19T06:31:29;3.90;;;1.85;;
56927;SDS011;60850;52.502;13.426;2023-05-19T06:33:57;11.82;;;2.92;;
56927;SDS011;60850;52.502;13.426;2023-05-19T06:36:25;5.32;;;1.80;;
56927;SDS011;60850;52.502;13.426;2023-05-19T06:38:52;4.50;;;1.90;;
56927;SDS011;60850;52.502;13.426;2023-05-19T06:41:19;5.78;;;2.00;;
56927;SDS011;60850;52.502;13.426;2023-05-19T06:43:47;4.85;;;2.58;;
56927;SDS011;60850;52.502;13.426;2023-05-19T06:46:13;3.67;;;1.70;;
56927;SDS011;60850;52.502;13.426;2023-05-19T06:48:42;4.75;;;1.73;;
56927;SDS011;60850;52.502;13.426;2023-05-19T06:51:08;5.88;;;2.60;;
56927;SDS011;60850;52.502;13.426;2023-05-19T06:53:37;7.57;;;4.35;;
56927;SDS011;60850;52.502;13.426;2023-05-19T06:56:04;7.22;;;2.50;;
56927;SDS011;60850;52.502;13.426;2023-05-19T06:58:32;3.40;;;1.75;;
56927;SDS011;60850;52.502;13.426;2023-05-19T07:00:59;4.05;;;1.92;;
56927;SDS011;60850;52.502;13.426;2023-05-19T07:03:26;4.30;;;1.70;;
56927;SDS011;60850;52.502;13.426;2023-05-19T07:05:52;2.72;;;1.95;;
56927;SDS011;60850;52.502;13.426;2023-05-19T07:08:19;4.35;;;2.20;;
56927;SDS011;60850;52.502;13.426;2023-05-19T07:10:47;2.50;;;2.10;;
56927;SDS011;60850;52.502;13.426;2023-05-19T07:13:14;3.15;;;1.63;;
56927;SDS011;60850;52.502;13.426;2023-05-19T07:15:41;4.53;;;2.15;;
56927;SDS011;60850;52.502;13.426;2023-05-19T07:18:08;4.55;;;1.80;;
56927;SDS011;60850;52.502;13.426;2023-05-19T07:20:35;5.22;;;2.08;;
56927;SDS011;60850;52.502;13.426;2023-05-19T07:23:02;4.78;;;1.90;;
56927;SDS011;60850;52.502;13.426;2023-05-19T07:25:29;5.45;;;2.53;;
56927;SDS011;60850;52.502;13.426;2023-05-19T07:27:57;2.85;;;1.90;;
56927;SDS011;60850;52.502;13.426;2023-05-19T07:30:25;5.22;;;1.67;;
56927;SDS011;60850;52.502;13.426;2023-05-19T07:32:53;3.35;;;1.90;;
56927;SDS011;60850;52.502;13.426;2023-05-19T07:35:19;5.05;;;1.85;;
56927;SDS011;60850;52.502;13.426;2023-05-19T07:37:47;4.28;;;2.10;;
56927;SDS011;60850;52.502;13.426;2023-05-19T07:40:14;6.47;;;2.05;;
56927;SDS011;60850;52.502;13.426;2023-05-19T07:42:41;5.43;;;1.92;;
56927;SDS011;60850;52.502;13.426;2023-05-19T07:45:10;5.32;;;2.08;;
56927;SDS011;60850;52.502;13.426;2023-05-19T07:47:37;5.47;;;2.15;;
56927;SDS011;60850;52.502;13.426;2023-05-19T07:50:04;3.90;;;2.13;;
56927;SDS011;60850;52.502;13.426;2023-05-19T07:52:32;3.70;;;2.10;;
56927;SDS011;60850;52.502;13.426;2023-05-19T07:54:59;2.63;;;2.00;;
56927;SDS011;60850;52.502;13.426;2023-05-19T07:57:26;3.15;;;2.00;;
56927;SDS011;60850;52.502;13.426;2023-05-19T07:59:53;3.85;;;1.85;;
56927;SDS011;60850;52.502;13.426;2023-05-19T08:02:21;2.35;;;1.50;;
56927;SDS011;60850;52.502;13.426;2023-05-19T08:04:48;4.13;;;1.90;;
56927;SDS011;60850;52.502;13.426;2023-05-19T08:07:15;2.97;;;2.00;;
56927;SDS011;60850;52.502;13.426;2023-05-19T08:09:41;5.30;;;2.30;;
56927;SDS011;60850;52.502;13.426;2023-05-19T08:12:09;7.43;;;2.15;;
56927;SDS011;60850;52.502;13.426;2023-05-19T08:14:35;3.97;;;2.00;;
56927;SDS011;60850;52.502;13.426;2023-05-19T08:17:02;3.85;;;2.17;;
56927;SDS011;60850;52.502;13.426;2023-05-19T08:19:31;5.20;;;2.30;;
56927;SDS011;60850;52.502;13.426;2023-05-19T08:21:58;3.22;;;1.83;;
56927;SDS011;60850;52.502;13.426;2023-05-19T08:24:25;4.38;;;1.98;;
56927;SDS011;60850;52.502;13.426;2023-05-19T08:26:54;6.50;;;2.35;;
56927;SDS011;60850;52.502;13.426;2023-05-19T08:29:21;4.47;;;2.10;;
56927;SDS011;60850;52.502;13.426;2023-05-19T08:31:48;2.85;;;2.00;;
56927;SDS011;60850;52.502;13.426;2023-05-19T08:34:15;4.15;;;1.98;;
56927;SDS011;60850;52.502;13.426;2023-05-19T08:36:43;3.42;;;2.00;;
56927;SDS011;60850;52.502;13.426;2023-05-19T08:39:11;2.70;;;1.58;;
56927;SDS011;60850;52.502;13.426;2023-05-19T08:41:40;2.78;;;1.38;;
56927;SDS011;60850;52.502;13.426;2023-05-19T08:44:07;5.30;;;2.40;;
56927;SDS011;60850;52.502;13.426;2023-05-19T08:46:34;2.33;;;1.75;;
56927;SDS011;60850;52.502;13.426;2023-05-19T08:49:03;6.07;;;1.95;;
56927;SDS011;60850;52.502;13.426;2023-05-19T08:51:35;3.15;;;1.45;;
56927;SDS011;60850;52.502;13.426;2023-05-19T08:54:11;5.13;;;1.80;;
56927;SDS011;60850;52.502;13.426;2023-05-19T08:56:41;3.65;;;1.38;;
56927;SDS011;60850;52.502;13.426;2023-05-19T08:59:09;5.35;;;1.63;;
56927;SDS011;60850;52.502;13.426;2023-05-19T09:01:37;2.58;;;1.60;;
56927;SDS011;60850;52.502;13.426;2023-05-19T09:04:05;3.00;;;1.73;;
56927;SDS011;60850;52.502;13.426;2023-05-19T09:06:32;3.83;;;1.70;;
56927;SDS011;60850;52.502;13.426;2023-05-19T09:08:59;2.17;;;1.00;;
56927;SDS011;60850;52.502;13.426;2023-05-19T09:11:27;1.83;;;0.88;;
56927;SDS011;60850;52.502;13.426;2023-05-19T09:13:54;2.97;;;1.30;;
56927;SDS011;60850;52.502;13.426;2023-05-19T09:16:21;2.05;;;1.00;;
56927;SDS011;60850;52.502;13.426;2023-05-19T09:18:55;2.40;;;1.13;;
56927;SDS011;60850;52.502;13.426;2023-05-19T09:21:26;2.65;;;1.20;;
56927;SDS011;60850;52.502;13.426;2023-05-19T09:23:55;2.38;;;1.10;;
56927;SDS011;60850;52.502;13.426;2023-05-19T09:26:23;1.67;;;1.13;;
56927;SDS011;60850;52.502;13.426;2023-05-19T09:28:51;2.92;;;1.10;;
56927;SDS011;60850;52.502;13.426;2023-05-19T09:31:23;2.72;;;1.00;;
56927;SDS011;60850;52.502;13.426;2023-05-19T09:33:57;1.10;;;1.00;;
56927;SDS011;60850;52.502;13.426;2023-05-19T09:36:24;1.83;;;1.10;;
56927;SDS011;60850;52.502;13.426;2023-05-19T09:38:50;1.20;;;0.73;;
56927;SDS011;60850;52.502;13.426;2023-05-19T09:41:18;3.78;;;1.00;;
56927;SDS011;60850;52.502;13.426;2023-05-19T09:43:48;3.92;;;0.90;;
56927;SDS011;60850;52.502;13.426;2023-05-19T09:46:23;2.65;;;1.00;;
56927;SDS011;60850;52.502;13.426;2023-05-19T09:48:55;10.95;;;1.10;;
56927;SDS011;60850;52.502;13.426;2023-05-19T09:51:22;1.40;;;0.77;;
56927;SDS011;60850;52.502;13.426;2023-05-19T09:53:49;1.38;;;0.73;;
56927;SDS011;60850;52.502;13.426;2023-05-19T09:56:18;4.40;;;1.15;;
56927;SDS011;60850;52.502;13.426;2023-05-19T09:58:47;2.80;;;1.13;;
56927;SDS011;60850;52.502;13.426;2023-05-19T10:01:16;1.65;;;1.10;;
56927;SDS011;60850;52.502;13.426;2023-05-19T10:03:43;2.22;;;0.80;;
56927;SDS011;60850;52.502;13.426;2023-05-19T10:06:11;1.25;;;0.80;;
56927;SDS011;60850;52.502;13.426;2023-05-19T10:08:39;2.60;;;1.23;;
56927;SDS011;60850;52.502;13.426;2023-05-19T10:11:08;2.88;;;0.88;;
56927;SDS011;60850;52.502;13.426;2023-05-19T10:13:36;1.52;;;0.70;;
56927;SDS011;60850;52.502;13.426;2023-05-19T10:16:04;2.08;;;0.90;;
56927;SDS011;60850;52.502;13.426;2023-05-19T10:18:33;1.83;;;0.75;;
56927;SDS011;60850;52.502;13.426;2023-05-19T10:21:00;2.05;;;1.00;;
56927;SDS011;60850;52.502;13.426;2023-05-19T10:23:28;2.10;;;1.17;;
56927;SDS011;60850;52.502;13.426;2023-05-19T10:25:55;2.33;;;0.88;;
56927;SDS011;60850;52.502;13.426;2023-05-19T10:28:26;1.42;;;0.95;;
56927;SDS011;60850;52.502;13.426;2023-05-19T10:31:00;2.90;;;0.80;;
56927;SDS011;60850;52.502;13.426;2023-05-19T10:33:33;1.45;;;1.10;;
56927;SDS011;60850;52.502;13.426;2023-05-19T10:36:14;2.75;;;1.10;;
56927;SDS011;60850;52.502;13.426;2023-05-19T10:38:57;2.47;;;1.55;;
56927;SDS011;60850;52.502;13.426;2023-05-19T10:44:02;2.42;;;1.15;;
56927;SDS011;60850;52.502;13.426;2023-05-19T10:46:36;2.10;;;1.42;;
56927;SDS011;60850;52.502;13.426;2023-05-19T10:49:07;4.53;;;1.40;;
56927;SDS011;60850;52.502;13.426;2023-05-19T10:51:34;2.58;;;0.82;;
56927;SDS011;60850;52.502;13.426;2023-05-19T10:54:01;2.33;;;1.00;;
56927;SDS011;60850;52.502;13.426;2023-05-19T10:56:32;3.13;;;1.10;;
56927;SDS011;60850;52.502;13.426;2023-05-19T10:59:00;4.10;;;1.10;;
56927;SDS011;60850;52.502;13.426;2023-05-19T11:01:31;3.03;;;0.80;;
56927;SDS011;60850;52.502;13.426;2023-05-19T11:04:03;2.70;;;1.00;;
56927;SDS011;60850;52.502;13.426;2023-05-19T11:06:32;2.10;;;1.20;;
56927;SDS011;60850;52.502;13.426;2023-05-19T11:09:08;1.80;;;0.90;;
56927;SDS011;60850;52.502;13.426;2023-05-19T11:11:44;5.85;;;1.00;;
56927;SDS011;60850;52.502;13.426;2023-05-19T11:14:13;1.58;;;0.70;;
56927;SDS011;60850;52.502;13.426;2023-05-19T11:16:45;2.67;;;1.02;;
56927;SDS011;60850;52.502;13.426;2023-05-19T11:19:16;2.22;;;1.13;;
56927;SDS011;60850;52.502;13.426;2023-05-19T11:21:49;1.35;;;0.85;;
56927;SDS011;60850;52.502;13.426;2023-05-19T11:24:37;3.03;;;1.02;;
56927;SDS011;60850;52.502;13.426;2023-05-19T11:27:18;2.03;;;1.20;;
56927;SDS011;60850;52.502;13.426;2023-05-19T11:29:46;1.23;;;0.80;;
56927;SDS011;60850;52.502;13.426;2023-05-19T11:32:14;1.33;;;0.82;;
56927;SDS011;60850;52.502;13.426;2023-05-19T11:34:42;2.15;;;0.85;;
56927;SDS011;60850;52.502;13.426;2023-05-19T11:37:11;2.80;;;0.80;;
56927;SDS011;60850;52.502;13.426;2023-05-19T11:39:38;1.50;;;1.10;;
56927;SDS011;60850;52.502;13.426;2023-05-19T11:42:05;3.38;;;1.10;;
56927;SDS011;60850;52.502;13.426;2023-05-19T11:44:34;3.30;;;1.30;;
56927;SDS011;60850;52.502;13.426;2023-05-19T11:47:03;1.77;;;1.20;;
56927;SDS011;60850;52.502;13.426;2023-05-19T11:49:30;2.50;;;1.10;;
56927;SDS011;60850;52.502;13.426;2023-05-19T11:51:58;2.95;;;0.90;;
56927;SDS011;60850;52.502;13.426;2023-05-19T11:54:31;4.65;;;1.15;;
56927;SDS011;60850;52.502;13.426;2023-05-19T11:57:00;1.23;;;0.90;;
56927;SDS011;60850;52.502;13.426;2023-05-19T11:59:28;3.05;;;0.90;;
56927;SDS011;60850;52.502;13.426;2023-05-19T12:01:57;2.95;;;1.08;;
56927;SDS011;60850;52.502;13.426;2023-05-19T12:04:27;2.97;;;1.20;;
56927;SDS011;60850;52.502;13.426;2023-05-19T12:06:54;2.55;;;1.17;;
56927;SDS011;60850;52.502;13.426;2023-05-19T12:09:27;2.17;;;0.95;;
56927;SDS011;60850;52.502;13.426;2023-05-19T12:11:55;4.65;;;1.00;;
56927;SDS011;60850;52.502;13.426;2023-05-19T12:14:24;1.45;;;0.98;;
56927;SDS011;60850;52.502;13.426;2023-05-19T12:16:51;2.10;;;0.95;;
56927;SDS011;60850;52.502;13.426;2023-05-19T12:19:21;1.80;;;1.13;;
56927;SDS011;60850;52.502;13.426;2023-05-19T12:21:48;2.58;;;1.10;;
56927;SDS011;60850;52.502;13.426;2023-05-19T12:24:15;3.65;;;1.10;;
56927;SDS011;60850;52.502;13.426;2023-05-19T12:26:42;1.63;;;1.02;;
56927;SDS011;60850;52.502;13.426;2023-05-19T12:29:10;3.10;;;1.00;;
56927;SDS011;60850;52.502;13.426;2023-05-19T12:31:38;1.52;;;0.95;;
56927;SDS011;60850;52.502;13.426;2023-05-19T12:34:05;3.92;;;0.90;;
56927;SDS011;60850;52.502;13.426;2023-05-19T12:36:33;2.85;;;1.10;;
56927;SDS011;60850;52.502;13.426;2023-05-19T12:39:00;2.30;;;0.98;;
56927;SDS011;60850;52.502;13.426;2023-05-19T12:41:27;3.35;;;1.10;;
56927;SDS011;60850;52.502;13.426;2023-05-19T12:43:54;1.92;;;1.17;;
56927;SDS011;60850;52.502;13.426;2023-05-19T12:46:22;1.85;;;1.02;;
56927;SDS011;60850;52.502;13.426;2023-05-19T12:48:49;3.22;;;1.20;;
56927;SDS011;60850;52.502;13.426;2023-05-19T12:51:17;2.85;;;1.15;;
56927;SDS011;60850;52.502;13.426;2023-05-19T12:53:44;1.88;;;1.10;;
56927;SDS011;60850;52.502;13.426;2023-05-19T12:56:12;1.83;;;1.02;;
56927;SDS011;60850;52.502;13.426;2023-05-19T12:58:39;4.63;;;1.70;;
56927;SDS011;60850;52.502;13.426;2023-05-19T13:01:13;3.10;;;1.20;;
56927;SDS011;60850;52.502;13.426;2023-05-19T13:03:43;1.90;;;1.08;;
56927;SDS011;60850;52.502;13.426;2023-05-19T13:06:10;1.50;;;1.02;;
56927;SDS011;60850;52.502;13.426;2023-05-19T13:08:37;1.70;;;1.00;;
56927;SDS011;60850;52.502;13.426;2023-05-19T13:11:05;5.05;;;1.13;;
56927;SDS011;60850;52.502;13.426;2023-05-19T13:13:32;3.03;;;1.20;;
56927;SDS011;60850;52.502;13.426;2023-05-19T13:16:00;2.33;;;1.33;;
56927;SDS011;60850;52.502;13.426;2023-05-19T13:18:26;3.25;;;1.10;;
56927;SDS011;60850;52.502;13.426;2023-05-19T13:20:57;2.20;;;1.25;;
56927;SDS011;60850;52.502;13.426;2023-05-19T13:23:24;1.90;;;1.20;;
56927;SDS011;60850;52.502;13.426;2023-05-19T13:25:52;3.83;;;1.50;;
56927;SDS011;60850;52.502;13.426;2023-05-19T13:28:18;2.15;;;1.35;;
56927;SDS011;60850;52.502;13.426;2023-05-19T13:30:45;3.83;;;1.23;;
56927;SDS011;60850;52.502;13.426;2023-05-19T13:33:13;2.92;;;1.42;;
56927;SDS011;60850;52.502;13.426;2023-05-19T13:35:41;3.10;;;1.38;;
56927;SDS011;60850;52.502;13.426;2023-05-19T13:38:09;1.67;;;1.27;;
56927;SDS011;60850;52.502;13.426;2023-05-19T13:40:36;3.08;;;1.35;;
56927;SDS011;60850;52.502;13.426;2023-05-19T13:43:03;2.83;;;1.17;;
56927;SDS011;60850;52.502;13.426;2023-05-19T13:45:31;2.40;;;1.25;;
56927;SDS011;60850;52.502;13.426;2023-05-19T13:47:58;3.88;;;1.40;;
56927;SDS011;60850;52.502;13.426;2023-05-19T13:50:25;2.38;;;1.20;;
56927;SDS011;60850;52.502;13.426;2023-05-19T13:52:52;3.13;;;1.10;;
56927;SDS011;60850;52.502;13.426;2023-05-19T13:55:21;3.08;;;1.10;;
56927;SDS011;60850;52.502;13.426;2023-05-19T13:57:47;4.85;;;1.38;;
56927;SDS011;60850;52.502;13.426;2023-05-19T14:00:15;2.50;;;1.30;;
56927;SDS011;60850;52.502;13.426;2023-05-19T14:02:43;1.50;;;1.20;;
56927;SDS011;60850;52.502;13.426;2023-05-19T14:05:10;4.30;;;1.27;;
56927;SDS011;60850;52.502;13.426;2023-05-19T14:07:37;2.40;;;1.48;;
56927;SDS011;60850;52.502;13.426;2023-05-19T14:10:05;2.85;;;1.40;;
56927;SDS011;60850;52.502;13.426;2023-05-19T14:12:33;1.88;;;1.35;;
56927;SDS011;60850;52.502;13.426;2023-05-19T14:15:01;2.55;;;1.25;;
56927;SDS011;60850;52.502;13.426;2023-05-19T14:17:27;4.28;;;1.38;;
56927;SDS011;60850;52.502;13.426;2023-05-19T14:19:54;3.25;;;1.50;;
56927;SDS011;60850;52.502;13.426;2023-05-19T14:22:21;2.38;;;1.08;;
56927;SDS011;60850;52.502;13.426;2023-05-19T14:24:48;2.35;;;1.50;;
56927;SDS011;60850;52.502;13.426;2023-05-19T14:27:15;6.13;;;1.00;;
56927;SDS011;60850;52.502;13.426;2023-05-19T14:29:43;8.15;;;1.30;;
56927;SDS011;60850;52.502;13.426;2023-05-19T14:32:10;1.70;;;1.20;;
56927;SDS011;60850;52.502;13.426;2023-05-19T14:34:37;4.82;;;1.30;;
56927;SDS011;60850;52.502;13.426;2023-05-19T14:37:04;3.03;;;1.60;;
56927;SDS011;60850;52.502;13.426;2023-05-19T14:39:31;3.88;;;1.38;;
56927;SDS011;60850;52.502;13.426;2023-05-19T14:41:58;3.80;;;1.55;;
56927;SDS011;60850;52.502;13.426;2023-05-19T14:44:28;2.33;;;1.52;;
56927;SDS011;60850;52.502;13.426;2023-05-19T14:46:57;2.03;;;1.35;;